sensor_id;sensor_type;location;lat;lon;timestamp;temperature;humidity
23267;DHT22;11802;53.160;8.214;2022-12-15T00:02:32;-5.40;99.90
23267;DHT22;11802;53.160;8.214;2022-12-15T00:05:16;-5.30;99.90
23267;DHT22;11802;53.160;8.214;2022-12-15T00:08:08;-5.30;99.90
23267;DHT22;11802;53.160;8.214;2022-12-15T00:10:52;-5.30;99.90
23267;DHT22;11802;53.160;8.214;2022-12-15T00:13:36;-5.40;99.90
23267;DHT22;11802;53.160;8.214;2022-12-15T00:16:20;-5.40;99.90
23267;DHT22;11802;53.160;8.214;2022-12-15T00:19:04;-5.40;99.90
23267;DHT22;11802;53.160;8.214;2022-12-15T00:21:48;-5.40;99.90
23267;DHT22;11802;53.160;8.214;2022-12-15T00:24:33;-5.50;99.90
23267;DHT22;11802;53.160;8.214;2022-12-15T00:27:17;-5.50;99.90
23267;DHT22;11802;53.160;8.214;2022-12-15T00:30:02;-5.40;99.90
23267;DHT22;11802;53.160;8.214;2022-12-15T00:32:46;-5.40;99.90
23267;DHT22;11802;53.160;8.214;2022-12-15T00:35:31;-5.40;99.90
23267;DHT22;11802;53.160;8.214;2022-12-15T00:38:15;-5.50;99.90
23267;DHT22;11802;53.160;8.214;2022-12-15T00:41:02;-5.50;99.90
23267;DHT22;11802;53.160;8.214;2022-12-15T00:43:32;-5.50;99.90
23267;DHT22;11802;53.160;8.214;2022-12-15T00:45:59;-5.40;99.90
23267;DHT22;11802;53.160;8.214;2022-12-15T00:48:43;-5.50;99.90
23267;DHT22;11802;53.160;8.214;2022-12-15T00:51:10;-5.50;99.90
23267;DHT22;11802;53.160;8.214;2022-12-15T00:53:35;-5.40;99.90
23267;DHT22;11802;53.160;8.214;2022-12-15T00:56:20;-5.40;99.90
23267;DHT22;11802;53.160;8.214;2022-12-15T00:59:03;-5.30;99.90
23267;DHT22;11802;53.160;8.214;2022-12-15T01:01:47;-5.40;99.90
23267;DHT22;11802;53.160;8.214;2022-12-15T01:04:31;-5.40;99.90
23267;DHT22;11802;53.160;8.214;2022-12-15T01:07:15;-5.30;99.90
23267;DHT22;11802;53.160;8.214;2022-12-15T01:10:00;-5.30;99.90
23267;DHT22;11802;53.160;8.214;2022-12-15T01:12:45;-5.30;99.90
23267;DHT22;11802;53.160;8.214;2022-12-15T01:15:29;-5.20;99.90
23267;DHT22;11802;53.160;8.214;2022-12-15T01:18:13;-5.30;99.90
23267;DHT22;11802;53.160;8.214;2022-12-15T01:21:00;-5.30;99.90
23267;DHT22;11802;53.160;8.214;2022-12-15T01:23:26;-5.30;99.90
23267;DHT22;11802;53.160;8.214;2022-12-15T01:25:52;-5.40;99.90
23267;DHT22;11802;53.160;8.214;2022-12-15T01:28:19;-5.40;99.90
23267;DHT22;11802;53.160;8.214;2022-12-15T01:30:45;-5.50;99.90
23267;DHT22;11802;53.160;8.214;2022-12-15T01:33:11;-5.40;99.90
23267;DHT22;11802;53.160;8.214;2022-12-15T01:35:38;-5.40;99.90
23267;DHT22;11802;53.160;8.214;2022-12-15T01:38:04;-5.40;99.90
23267;DHT22;11802;53.160;8.214;2022-12-15T01:40:30;-5.40;99.90
23267;DHT22;11802;53.160;8.214;2022-12-15T01:43:17;-5.40;99.90
23267;DHT22;11802;53.160;8.214;2022-12-15T01:48:28;-5.40;99.90
23267;DHT22;11802;53.160;8.214;2022-12-15T01:51:05;-5.40;99.90
23267;DHT22;11802;53.160;8.214;2022-12-15T01:53:34;-5.40;99.90
23267;DHT22;11802;53.160;8.214;2022-12-15T01:56:04;-5.40;99.90
23267;DHT22;11802;53.160;8.214;2022-12-15T01:58:30;-5.40;99.90
23267;DHT22;11802;53.160;8.214;2022-12-15T02:00:56;-5.50;99.90
23267;DHT22;11802;53.160;8.214;2022-12-15T02:03:22;-5.50;99.90
23267;DHT22;11802;53.160;8.214;2022-12-15T02:05:48;-5.50;99.90
23267;DHT22;11802;53.160;8.214;2022-12-15T02:08:13;-5.50;99.90
23267;DHT22;11802;53.160;8.214;2022-12-15T02:10:52;-5.60;99.90
23267;DHT22;11802;53.160;8.214;2022-12-15T02:13:31;-5.60;99.90
23267;DHT22;11802;53.160;8.214;2022-12-15T02:16:24;-5.50;99.90
23267;DHT22;11802;53.160;8.214;2022-12-15T02:24:59;-5.50;99.90
23267;DHT22;11802;53.160;8.214;2022-12-15T02:27:56;-5.40;99.90
23267;DHT22;11802;53.160;8.214;2022-12-15T02:30:47;-5.40;99.90
23267;DHT22;11802;53.160;8.214;2022-12-15T02:33:35;-5.40;99.90
23267;DHT22;11802;53.160;8.214;2022-12-15T02:36:22;-5.40;99.90
23267;DHT22;11802;53.160;8.214;2022-12-15T02:38:50;-5.40;99.90
23267;DHT22;11802;53.160;8.214;2022-12-15T02:41:34;-5.40;99.90
23267;DHT22;11802;53.160;8.214;2022-12-15T02:47:15;-5.40;99.90
23267;DHT22;11802;53.160;8.214;2022-12-15T03:00:53;-5.40;99.90
23267;DHT22;11802;53.160;8.214;2022-12-15T03:03:22;-5.40;99.90
23267;DHT22;11802;53.160;8.214;2022-12-15T03:05:50;-5.40;99.90
23267;DHT22;11802;53.160;8.214;2022-12-15T03:08:20;-5.40;99.90
23267;DHT22;11802;53.160;8.214;2022-12-15T03:10:48;-5.50;99.90
23267;DHT22;11802;53.160;8.214;2022-12-15T03:13:15;-5.50;99.90
23267;DHT22;11802;53.160;8.214;2022-12-15T03:15:40;-5.50;99.90
23267;DHT22;11802;53.160;8.214;2022-12-15T03:18:06;-5.50;99.90
23267;DHT22;11802;53.160;8.214;2022-12-15T03:20:31;-5.60;99.90
23267;DHT22;11802;53.160;8.214;2022-12-15T03:22:57;-5.60;99.90
23267;DHT22;11802;53.160;8.214;2022-12-15T03:25:23;-5.50;99.90
23267;DHT22;11802;53.160;8.214;2022-12-15T03:27:48;-5.60;99.90
23267;DHT22;11802;53.160;8.214;2022-12-15T03:30:14;-5.60;99.90
23267;DHT22;11802;53.160;8.214;2022-12-15T03:32:40;-5.50;99.90
23267;DHT22;11802;53.160;8.214;2022-12-15T03:35:06;-5.50;99.90
23267;DHT22;11802;53.160;8.214;2022-12-15T03:37:31;-5.50;99.90
23267;DHT22;11802;53.160;8.214;2022-12-15T03:39:57;-5.60;99.90
23267;DHT22;11802;53.160;8.214;2022-12-15T03:42:22;-5.50;99.90
23267;DHT22;11802;53.160;8.214;2022-12-15T03:45:07;-5.50;99.90
23267;DHT22;11802;53.160;8.214;2022-12-15T03:47:33;-5.50;99.90
23267;DHT22;11802;53.160;8.214;2022-12-15T03:49:59;-5.50;99.90
23267;DHT22;11802;53.160;8.214;2022-12-15T03:52:25;-5.50;99.90
23267;DHT22;11802;53.160;8.214;2022-12-15T03:54:50;-5.40;99.90
23267;DHT22;11802;53.160;8.214;2022-12-15T03:57:16;-5.50;99.90
23267;DHT22;11802;53.160;8.214;2022-12-15T03:59:41;-5.50;99.90
23267;DHT22;11802;53.160;8.214;2022-12-15T04:02:09;-5.50;99.90
23267;DHT22;11802;53.160;8.214;2022-12-15T04:04:36;-5.50;99.90
23267;DHT22;11802;53.160;8.214;2022-12-15T04:07:02;-5.50;99.90
23267;DHT22;11802;53.160;8.214;2022-12-15T04:09:27;-5.40;99.90
23267;DHT22;11802;53.160;8.214;2022-12-15T04:11:53;-5.40;99.90
23267;DHT22;11802;53.160;8.214;2022-12-15T04:14:18;-5.40;99.90
23267;DHT22;11802;53.160;8.214;2022-12-15T04:16:44;-5.40;99.90
23267;DHT22;11802;53.160;8.214;2022-12-15T04:19:09;-5.40;99.90
23267;DHT22;11802;53.160;8.214;2022-12-15T04:21:53;-5.40;99.90
23267;DHT22;11802;53.160;8.214;2022-12-15T04:24:19;-5.40;99.90
23267;DHT22;11802;53.160;8.214;2022-12-15T04:27:03;-5.40;99.90
23267;DHT22;11802;53.160;8.214;2022-12-15T04:29:47;-5.40;99.90
23267;DHT22;11802;53.160;8.214;2022-12-15T04:32:31;-5.40;99.90
23267;DHT22;11802;53.160;8.214;2022-12-15T04:35:15;-5.40;99.90
23267;DHT22;11802;53.160;8.214;2022-12-15T04:38:00;-5.20;99.90
23267;DHT22;11802;53.160;8.214;2022-12-15T04:40:44;-5.20;99.90
23267;DHT22;11802;53.160;8.214;2022-12-15T04:43:28;-5.20;99.90
23267;DHT22;11802;53.160;8.214;2022-12-15T04:46:12;-5.20;99.90
23267;DHT22;11802;53.160;8.214;2022-12-15T04:48:56;-5.30;99.90
23267;DHT22;11802;53.160;8.214;2022-12-15T04:51:40;-5.30;99.90
23267;DHT22;11802;53.160;8.214;2022-12-15T04:54:24;-5.40;99.90
23267;DHT22;11802;53.160;8.214;2022-12-15T04:57:08;-5.40;99.90
23267;DHT22;11802;53.160;8.214;2022-12-15T04:59:52;-5.50;99.90
23267;DHT22;11802;53.160;8.214;2022-12-15T05:02:36;-5.40;99.90
23267;DHT22;11802;53.160;8.214;2022-12-15T05:05:20;-5.40;99.90
23267;DHT22;11802;53.160;8.214;2022-12-15T05:08:04;-5.40;99.90
23267;DHT22;11802;53.160;8.214;2022-12-15T05:10:48;-5.40;99.90
23267;DHT22;11802;53.160;8.214;2022-12-15T05:13:32;-5.40;99.90
23267;DHT22;11802;53.160;8.214;2022-12-15T05:16:16;-5.50;99.90
23267;DHT22;11802;53.160;8.214;2022-12-15T05:19:00;-5.50;99.90
23267;DHT22;11802;53.160;8.214;2022-12-15T05:21:44;-5.50;99.90
23267;DHT22;11802;53.160;8.214;2022-12-15T05:24:28;-5.50;99.90
23267;DHT22;11802;53.160;8.214;2022-12-15T05:27:12;-5.50;99.90
23267;DHT22;11802;53.160;8.214;2022-12-15T05:29:56;-5.50;99.90
23267;DHT22;11802;53.160;8.214;2022-12-15T05:32:40;-5.40;99.90
23267;DHT22;11802;53.160;8.214;2022-12-15T05:35:06;-5.40;99.90
23267;DHT22;11802;53.160;8.214;2022-12-15T05:37:31;-5.40;99.90
23267;DHT22;11802;53.160;8.214;2022-12-15T05:39:57;-5.40;99.90
23267;DHT22;11802;53.160;8.214;2022-12-15T05:42:22;-5.40;99.90
23267;DHT22;11802;53.160;8.214;2022-12-15T05:44:48;-5.40;99.90
23267;DHT22;11802;53.160;8.214;2022-12-15T05:47:13;-5.30;99.90
23267;DHT22;11802;53.160;8.214;2022-12-15T05:49:39;-5.30;99.90
23267;DHT22;11802;53.160;8.214;2022-12-15T05:52:05;-5.30;99.90
23267;DHT22;11802;53.160;8.214;2022-12-15T05:54:30;-5.30;99.90
23267;DHT22;11802;53.160;8.214;2022-12-15T05:56:56;-5.30;99.90
23267;DHT22;11802;53.160;8.214;2022-12-15T05:59:21;-5.30;99.90
23267;DHT22;11802;53.160;8.214;2022-12-15T06:01:47;-5.30;99.90
23267;DHT22;11802;53.160;8.214;2022-12-15T06:04:13;-5.30;99.90
23267;DHT22;11802;53.160;8.214;2022-12-15T06:06:39;-5.20;99.90
23267;DHT22;11802;53.160;8.214;2022-12-15T06:09:05;-5.20;99.90
23267;DHT22;11802;53.160;8.214;2022-12-15T06:11:31;-5.20;99.90
23267;DHT22;11802;53.160;8.214;2022-12-15T06:13:57;-5.20;99.90
23267;DHT22;11802;53.160;8.214;2022-12-15T06:16:25;-5.10;99.90
23267;DHT22;11802;53.160;8.214;2022-12-15T06:18:55;-5.10;99.90
23267;DHT22;11802;53.160;8.214;2022-12-15T06:21:24;-5.10;99.90
23267;DHT22;11802;53.160;8.214;2022-12-15T06:23:51;-5.10;99.90
23267;DHT22;11802;53.160;8.214;2022-12-15T06:26:20;-5.10;99.90
23267;DHT22;11802;53.160;8.214;2022-12-15T06:28:47;-5.10;99.90
23267;DHT22;11802;53.160;8.214;2022-12-15T06:31:13;-5.10;99.90
23267;DHT22;11802;53.160;8.214;2022-12-15T06:33:39;-5.00;99.90
23267;DHT22;11802;53.160;8.214;2022-12-15T06:36:08;-5.10;99.90
23267;DHT22;11802;53.160;8.214;2022-12-15T06:38:35;-5.10;99.90
23267;DHT22;11802;53.160;8.214;2022-12-15T06:41:02;-5.10;99.90
23267;DHT22;11802;53.160;8.214;2022-12-15T06:43:28;-5.00;99.90
23267;DHT22;11802;53.160;8.214;2022-12-15T06:45:54;-5.00;99.90
23267;DHT22;11802;53.160;8.214;2022-12-15T06:48:20;-5.00;99.90
23267;DHT22;11802;53.160;8.214;2022-12-15T06:50:46;-5.00;99.90
23267;DHT22;11802;53.160;8.214;2022-12-15T06:53:16;-5.00;99.90
23267;DHT22;11802;53.160;8.214;2022-12-15T06:55:43;-5.00;99.90
23267;DHT22;11802;53.160;8.214;2022-12-15T06:58:09;-5.00;99.90
23267;DHT22;11802;53.160;8.214;2022-12-15T07:00:36;-5.00;99.90
23267;DHT22;11802;53.160;8.214;2022-12-15T07:03:05;-4.90;99.90
23267;DHT22;11802;53.160;8.214;2022-12-15T07:05:30;-4.90;99.90
23267;DHT22;11802;53.160;8.214;2022-12-15T07:07:56;-4.90;99.90
23267;DHT22;11802;53.160;8.214;2022-12-15T07:10:22;-4.80;99.90
23267;DHT22;11802;53.160;8.214;2022-12-15T07:12:47;-4.80;99.90
23267;DHT22;11802;53.160;8.214;2022-12-15T07:15:13;-4.80;99.90
23267;DHT22;11802;53.160;8.214;2022-12-15T07:17:39;-4.70;99.90
23267;DHT22;11802;53.160;8.214;2022-12-15T07:20:05;-4.70;99.90
23267;DHT22;11802;53.160;8.214;2022-12-15T07:24:57;-4.60;99.90
23267;DHT22;11802;53.160;8.214;2022-12-15T07:27:22;-4.50;99.90
23267;DHT22;11802;53.160;8.214;2022-12-15T07:29:48;-4.30;99.90
23267;DHT22;11802;53.160;8.214;2022-12-15T07:32:13;-4.20;99.90
23267;DHT22;11802;53.160;8.214;2022-12-15T07:34:40;-4.10;99.90
23267;DHT22;11802;53.160;8.214;2022-12-15T07:37:05;-4.00;99.90
23267;DHT22;11802;53.160;8.214;2022-12-15T07:39:31;-4.00;99.90
23267;DHT22;11802;53.160;8.214;2022-12-15T07:41:57;-3.90;99.90
23267;DHT22;11802;53.160;8.214;2022-12-15T07:44:22;-3.80;99.90
23267;DHT22;11802;53.160;8.214;2022-12-15T07:46:48;-3.80;99.90
23267;DHT22;11802;53.160;8.214;2022-12-15T07:49:17;-3.80;99.90
23267;DHT22;11802;53.160;8.214;2022-12-15T07:51:43;-3.70;99.90
23267;DHT22;11802;53.160;8.214;2022-12-15T07:54:10;-3.70;99.90
23267;DHT22;11802;53.160;8.214;2022-12-15T07:56:36;-3.60;99.90
23267;DHT22;11802;53.160;8.214;2022-12-15T07:59:02;-3.40;99.90
23267;DHT22;11802;53.160;8.214;2022-12-15T08:01:28;-3.40;99.90
23267;DHT22;11802;53.160;8.214;2022-12-15T08:03:53;-3.30;99.90
23267;DHT22;11802;53.160;8.214;2022-12-15T08:06:19;-3.20;99.90
23267;DHT22;11802;53.160;8.214;2022-12-15T08:08:44;-3.10;99.90
23267;DHT22;11802;53.160;8.214;2022-12-15T08:11:12;-3.10;99.90
23267;DHT22;11802;53.160;8.214;2022-12-15T08:13:39;-3.00;99.90
23267;DHT22;11802;53.160;8.214;2022-12-15T08:16:05;-2.90;99.90
23267;DHT22;11802;53.160;8.214;2022-12-15T08:18:30;-2.80;99.90
23267;DHT22;11802;53.160;8.214;2022-12-15T08:21:04;-2.70;99.90
23267;DHT22;11802;53.160;8.214;2022-12-15T08:23:31;-2.70;99.90
23267;DHT22;11802;53.160;8.214;2022-12-15T08:26:07;-2.50;99.90
23267;DHT22;11802;53.160;8.214;2022-12-15T08:28:34;-2.50;99.90
23267;DHT22;11802;53.160;8.214;2022-12-15T08:31:05;-2.40;99.90
23267;DHT22;11802;53.160;8.214;2022-12-15T08:33:33;-2.30;99.90
23267;DHT22;11802;53.160;8.214;2022-12-15T08:36:01;-2.20;99.90
23267;DHT22;11802;53.160;8.214;2022-12-15T08:38:28;-2.30;99.90
23267;DHT22;11802;53.160;8.214;2022-12-15T08:40:55;-2.20;99.90
23267;DHT22;11802;53.160;8.214;2022-12-15T08:43:21;-2.30;99.90
23267;DHT22;11802;53.160;8.214;2022-12-15T08:45:47;-2.20;99.90
23267;DHT22;11802;53.160;8.214;2022-12-15T08:48:13;-2.10;99.90
23267;DHT22;11802;53.160;8.214;2022-12-15T08:50:42;-2.10;99.90
23267;DHT22;11802;53.160;8.214;2022-12-15T08:53:09;-2.10;99.90
23267;DHT22;11802;53.160;8.214;2022-12-15T08:55:35;-2.10;99.90
23267;DHT22;11802;53.160;8.214;2022-12-15T08:58:00;-2.10;99.90
23267;DHT22;11802;53.160;8.214;2022-12-15T09:00:26;-2.10;99.90
23267;DHT22;11802;53.160;8.214;2022-12-15T09:02:52;-2.10;99.90
23267;DHT22;11802;53.160;8.214;2022-12-15T09:05:17;-2.20;99.90
23267;DHT22;11802;53.160;8.214;2022-12-15T09:07:43;-2.10;99.90
23267;DHT22;11802;53.160;8.214;2022-12-15T09:10:10;-2.10;99.90
23267;DHT22;11802;53.160;8.214;2022-12-15T09:12:35;-2.00;99.90
23267;DHT22;11802;53.160;8.214;2022-12-15T09:15:01;-2.00;99.90
23267;DHT22;11802;53.160;8.214;2022-12-15T09:17:27;-1.90;99.90
23267;DHT22;11802;53.160;8.214;2022-12-15T09:19:52;-1.90;99.90
23267;DHT22;11802;53.160;8.214;2022-12-15T09:22:18;-1.80;99.90
23267;DHT22;11802;53.160;8.214;2022-12-15T09:24:44;-1.90;99.90
23267;DHT22;11802;53.160;8.214;2022-12-15T09:27:10;-1.90;99.90
23267;DHT22;11802;53.160;8.214;2022-12-15T09:29:36;-1.90;99.90
23267;DHT22;11802;53.160;8.214;2022-12-15T09:32:02;-1.90;99.90
23267;DHT22;11802;53.160;8.214;2022-12-15T09:34:28;-2.00;99.90
23267;DHT22;11802;53.160;8.214;2022-12-15T09:36:54;-1.90;99.90
23267;DHT22;11802;53.160;8.214;2022-12-15T09:39:19;-1.80;99.90
23267;DHT22;11802;53.160;8.214;2022-12-15T09:41:52;-1.70;99.90
23267;DHT22;11802;53.160;8.214;2022-12-15T09:44:20;-1.60;99.90
23267;DHT22;11802;53.160;8.214;2022-12-15T09:52:34;-1.40;99.90
23267;DHT22;11802;53.160;8.214;2022-12-15T09:55:24;-1.40;99.90
23267;DHT22;11802;53.160;8.214;2022-12-15T09:57:59;-1.40;99.90
23267;DHT22;11802;53.160;8.214;2022-12-15T10:00:50;-1.40;99.90
23267;DHT22;11802;53.160;8.214;2022-12-15T10:08:29;-1.30;99.90
23267;DHT22;11802;53.160;8.214;2022-12-15T10:11:04;-1.30;99.90
23267;DHT22;11802;53.160;8.214;2022-12-15T10:13:42;-1.20;99.90
23267;DHT22;11802;53.160;8.214;2022-12-15T10:19:25;-1.10;99.90
23267;DHT22;11802;53.160;8.214;2022-12-15T10:21:52;-1.10;99.90
23267;DHT22;11802;53.160;8.214;2022-12-15T10:24:20;-1.00;99.90
23267;DHT22;11802;53.160;8.214;2022-12-15T10:27:01;-0.80;99.90
23267;DHT22;11802;53.160;8.214;2022-12-15T10:29:43;-0.70;99.90
23267;DHT22;11802;53.160;8.214;2022-12-15T10:32:22;-0.60;99.90
23267;DHT22;11802;53.160;8.214;2022-12-15T10:34:51;-0.50;99.90
23267;DHT22;11802;53.160;8.214;2022-12-15T10:37:19;-0.40;99.90
23267;DHT22;11802;53.160;8.214;2022-12-15T10:39:47;-0.40;99.90
23267;DHT22;11802;53.160;8.214;2022-12-15T10:42:19;-0.30;99.90
23267;DHT22;11802;53.160;8.214;2022-12-15T10:44:55;-0.20;99.90
23267;DHT22;11802;53.160;8.214;2022-12-15T10:47:29;-0.30;99.90
23267;DHT22;11802;53.160;8.214;2022-12-15T10:50:21;-0.20;99.90
23267;DHT22;11802;53.160;8.214;2022-12-15T10:52:47;-0.20;99.90
23267;DHT22;11802;53.160;8.214;2022-12-15T10:55:35;-0.30;99.90
23267;DHT22;11802;53.160;8.214;2022-12-15T10:58:09;-0.20;99.90
23267;DHT22;11802;53.160;8.214;2022-12-15T11:00:38;-0.20;99.90
23267;DHT22;11802;53.160;8.214;2022-12-15T11:03:22;-0.10;99.90
23267;DHT22;11802;53.160;8.214;2022-12-15T11:05:54;0.00;99.90
23267;DHT22;11802;53.160;8.214;2022-12-15T11:08:20;0.10;99.90
23267;DHT22;11802;53.160;8.214;2022-12-15T11:10:57;0.30;99.90
23267;DHT22;11802;53.160;8.214;2022-12-15T11:14:03;0.40;99.90
23267;DHT22;11802;53.160;8.214;2022-12-15T11:16:30;0.60;99.90
23267;DHT22;11802;53.160;8.214;2022-12-15T11:19:08;0.70;99.90
23267;DHT22;11802;53.160;8.214;2022-12-15T11:21:47;0.60;99.90
23267;DHT22;11802;53.160;8.214;2022-12-15T11:24:25;0.60;99.90
23267;DHT22;11802;53.160;8.214;2022-12-15T11:29:55;0.60;99.90
23267;DHT22;11802;53.160;8.214;2022-12-15T11:32:25;0.60;99.90
23267;DHT22;11802;53.160;8.214;2022-12-15T11:34:52;0.60;99.90
23267;DHT22;11802;53.160;8.214;2022-12-15T11:37:37;0.60;99.90
23267;DHT22;11802;53.160;8.214;2022-12-15T11:40:28;0.60;99.90
23267;DHT22;11802;53.160;8.214;2022-12-15T11:46:15;0.60;99.90
23267;DHT22;11802;53.160;8.214;2022-12-15T11:51:48;0.60;99.90
23267;DHT22;11802;53.160;8.214;2022-12-15T11:54:46;0.70;99.90
23267;DHT22;11802;53.160;8.214;2022-12-15T12:00:15;0.70;99.90
23267;DHT22;11802;53.160;8.214;2022-12-15T12:08:34;0.80;99.90
23267;DHT22;11802;53.160;8.214;2022-12-15T12:13:43;0.90;99.90
23267;DHT22;11802;53.160;8.214;2022-12-15T12:19:13;0.90;99.90
23267;DHT22;11802;53.160;8.214;2022-12-15T12:21:46;0.90;99.90
23267;DHT22;11802;53.160;8.214;2022-12-15T12:24:37;1.00;99.90
23267;DHT22;11802;53.160;8.214;2022-12-15T12:27:10;1.00;99.90
23267;DHT22;11802;53.160;8.214;2022-12-15T12:29:45;1.00;99.90
23267;DHT22;11802;53.160;8.214;2022-12-15T12:32:32;1.10;99.90
23267;DHT22;11802;53.160;8.214;2022-12-15T12:37:47;1.00;99.90
23267;DHT22;11802;53.160;8.214;2022-12-15T12:42:54;1.10;99.90
23267;DHT22;11802;53.160;8.214;2022-12-15T12:48:13;1.10;99.90
23267;DHT22;11802;53.160;8.214;2022-12-15T12:50:41;1.10;99.90
23267;DHT22;11802;53.160;8.214;2022-12-15T12:53:23;1.10;99.90
23267;DHT22;11802;53.160;8.214;2022-12-15T12:55:49;1.10;99.90
23267;DHT22;11802;53.160;8.214;2022-12-15T12:58:36;1.10;99.90
23267;DHT22;11802;53.160;8.214;2022-12-15T13:01:32;1.20;99.90
23267;DHT22;11802;53.160;8.214;2022-12-15T13:04:12;1.10;99.90
23267;DHT22;11802;53.160;8.214;2022-12-15T13:07:02;1.10;99.90
23267;DHT22;11802;53.160;8.214;2022-12-15T13:09:39;1.10;99.90
23267;DHT22;11802;53.160;8.214;2022-12-15T13:12:31;1.20;99.90
23267;DHT22;11802;53.160;8.214;2022-12-15T13:14:58;1.20;99.90
23267;DHT22;11802;53.160;8.214;2022-12-15T13:17:38;1.20;99.90
23267;DHT22;11802;53.160;8.214;2022-12-15T13:20:21;1.20;99.90
23267;DHT22;11802;53.160;8.214;2022-12-15T13:22:48;1.20;99.90
23267;DHT22;11802;53.160;8.214;2022-12-15T13:25:40;1.20;99.90
23267;DHT22;11802;53.160;8.214;2022-12-15T13:28:47;1.10;99.90
23267;DHT22;11802;53.160;8.214;2022-12-15T13:33:54;1.00;99.90
23267;DHT22;11802;53.160;8.214;2022-12-15T13:42:14;1.00;99.90
23267;DHT22;11802;53.160;8.214;2022-12-15T13:44:42;1.00;99.90
23267;DHT22;11802;53.160;8.214;2022-12-15T13:47:14;1.00;99.90
23267;DHT22;11802;53.160;8.214;2022-12-15T13:52:32;0.90;99.90
23267;DHT22;11802;53.160;8.214;2022-12-15T13:55:03;0.90;99.90
23267;DHT22;11802;53.160;8.214;2022-12-15T13:57:33;0.90;99.90
23267;DHT22;11802;53.160;8.214;2022-12-15T14:00:05;0.90;99.90
23267;DHT22;11802;53.160;8.214;2022-12-15T14:02:35;0.80;99.90
23267;DHT22;11802;53.160;8.214;2022-12-15T14:07:47;0.80;99.90
23267;DHT22;11802;53.160;8.214;2022-12-15T14:10:52;0.80;99.90
23267;DHT22;11802;53.160;8.214;2022-12-15T14:13:34;0.80;99.90
23267;DHT22;11802;53.160;8.214;2022-12-15T14:16:12;0.70;99.90
23267;DHT22;11802;53.160;8.214;2022-12-15T14:18:41;0.60;99.90
23267;DHT22;11802;53.160;8.214;2022-12-15T14:21:19;0.60;99.90
23267;DHT22;11802;53.160;8.214;2022-12-15T14:23:46;0.60;99.90
23267;DHT22;11802;53.160;8.214;2022-12-15T14:26:13;0.60;99.90
23267;DHT22;11802;53.160;8.214;2022-12-15T14:28:45;0.50;99.90
23267;DHT22;11802;53.160;8.214;2022-12-15T14:31:14;0.50;99.90
23267;DHT22;11802;53.160;8.214;2022-12-15T14:33:43;0.50;99.90
23267;DHT22;11802;53.160;8.214;2022-12-15T14:36:11;0.40;99.90
23267;DHT22;11802;53.160;8.214;2022-12-15T14:41:05;0.30;99.90
23267;DHT22;11802;53.160;8.214;2022-12-15T14:43:37;0.30;99.90
23267;DHT22;11802;53.160;8.214;2022-12-15T14:46:21;0.30;99.90
23267;DHT22;11802;53.160;8.214;2022-12-15T14:48:54;0.30;99.90
23267;DHT22;11802;53.160;8.214;2022-12-15T14:51:21;0.20;99.90
23267;DHT22;11802;53.160;8.214;2022-12-15T14:53:50;0.10;99.90
23267;DHT22;11802;53.160;8.214;2022-12-15T14:56:25;0.00;99.90
23267;DHT22;11802;53.160;8.214;2022-12-15T14:59:02;0.00;99.90
23267;DHT22;11802;53.160;8.214;2022-12-15T15:01:36;0.00;99.90
23267;DHT22;11802;53.160;8.214;2022-12-15T15:04:22;-0.20;99.90
23267;DHT22;11802;53.160;8.214;2022-12-15T15:06:53;-0.20;99.90
23267;DHT22;11802;53.160;8.214;2022-12-15T15:09:25;-0.20;99.90
23267;DHT22;11802;53.160;8.214;2022-12-15T15:11:54;-0.20;99.90
23267;DHT22;11802;53.160;8.214;2022-12-15T15:14:27;-0.20;99.90
23267;DHT22;11802;53.160;8.214;2022-12-15T15:17:13;-0.30;99.90
23267;DHT22;11802;53.160;8.214;2022-12-15T15:19:50;-0.30;99.90
23267;DHT22;11802;53.160;8.214;2022-12-15T15:22:36;-0.40;99.90
23267;DHT22;11802;53.160;8.214;2022-12-15T15:25:25;-0.40;99.90
23267;DHT22;11802;53.160;8.214;2022-12-15T15:28:01;-0.40;99.90
23267;DHT22;11802;53.160;8.214;2022-12-15T15:30:26;-0.40;99.90
23267;DHT22;11802;53.160;8.214;2022-12-15T15:32:56;-0.50;99.90
23267;DHT22;11802;53.160;8.214;2022-12-15T15:35:27;-0.50;99.90
23267;DHT22;11802;53.160;8.214;2022-12-15T15:40:40;-0.50;99.90
23267;DHT22;11802;53.160;8.214;2022-12-15T15:43:12;-0.60;99.90
23267;DHT22;11802;53.160;8.214;2022-12-15T15:45:39;-0.70;99.90
23267;DHT22;11802;53.160;8.214;2022-12-15T15:48:05;-0.70;99.90
23267;DHT22;11802;53.160;8.214;2022-12-15T15:50:31;-0.70;99.90
23267;DHT22;11802;53.160;8.214;2022-12-15T15:52:57;-0.70;99.90
23267;DHT22;11802;53.160;8.214;2022-12-15T15:55:27;-0.70;99.90
23267;DHT22;11802;53.160;8.214;2022-12-15T15:57:55;-0.70;99.90
23267;DHT22;11802;53.160;8.214;2022-12-15T16:00:22;-0.70;99.90
23267;DHT22;11802;53.160;8.214;2022-12-15T16:02:49;-0.70;99.90
23267;DHT22;11802;53.160;8.214;2022-12-15T16:05:15;-0.70;99.90
23267;DHT22;11802;53.160;8.214;2022-12-15T16:07:41;-0.80;99.90
23267;DHT22;11802;53.160;8.214;2022-12-15T16:10:12;-0.80;99.90
23267;DHT22;11802;53.160;8.214;2022-12-15T16:12:41;-0.80;99.90
23267;DHT22;11802;53.160;8.214;2022-12-15T16:15:20;-0.80;99.90
23267;DHT22;11802;53.160;8.214;2022-12-15T16:17:47;-0.80;99.90
23267;DHT22;11802;53.160;8.214;2022-12-15T16:20:15;-0.80;99.90
23267;DHT22;11802;53.160;8.214;2022-12-15T16:22:43;-0.80;99.90
23267;DHT22;11802;53.160;8.214;2022-12-15T16:25:18;-0.90;99.90
23267;DHT22;11802;53.160;8.214;2022-12-15T16:27:44;-0.80;99.90
23267;DHT22;11802;53.160;8.214;2022-12-15T16:30:18;-0.80;99.90
23267;DHT22;11802;53.160;8.214;2022-12-15T16:32:44;-0.80;99.90
23267;DHT22;11802;53.160;8.214;2022-12-15T16:35:10;-0.80;99.90
23267;DHT22;11802;53.160;8.214;2022-12-15T16:37:36;-0.90;99.90
23267;DHT22;11802;53.160;8.214;2022-12-15T16:40:04;-1.00;99.90
23267;DHT22;11802;53.160;8.214;2022-12-15T16:42:37;-0.90;99.90
23267;DHT22;11802;53.160;8.214;2022-12-15T16:45:13;-0.80;99.90
23267;DHT22;11802;53.160;8.214;2022-12-15T16:47:39;-0.90;99.90
23267;DHT22;11802;53.160;8.214;2022-12-15T16:50:05;-0.90;99.90
23267;DHT22;11802;53.160;8.214;2022-12-15T16:52:31;-1.00;99.90
23267;DHT22;11802;53.160;8.214;2022-12-15T16:54:56;-1.00;99.90
23267;DHT22;11802;53.160;8.214;2022-12-15T16:57:22;-1.10;99.90
23267;DHT22;11802;53.160;8.214;2022-12-15T16:59:47;-1.10;99.90
23267;DHT22;11802;53.160;8.214;2022-12-15T17:02:27;-1.10;99.90
23267;DHT22;11802;53.160;8.214;2022-12-15T17:04:53;-1.10;99.90
23267;DHT22;11802;53.160;8.214;2022-12-15T17:07:20;-1.00;99.90
23267;DHT22;11802;53.160;8.214;2022-12-15T17:09:47;-1.10;99.90
23267;DHT22;11802;53.160;8.214;2022-12-15T17:12:14;-1.10;99.90
23267;DHT22;11802;53.160;8.214;2022-12-15T17:14:41;-1.20;99.90
23267;DHT22;11802;53.160;8.214;2022-12-15T17:17:14;-1.10;99.90
23267;DHT22;11802;53.160;8.214;2022-12-15T17:19:40;-1.00;99.90
23267;DHT22;11802;53.160;8.214;2022-12-15T17:22:09;-1.10;99.90
23267;DHT22;11802;53.160;8.214;2022-12-15T17:24:36;-1.10;99.90
23267;DHT22;11802;53.160;8.214;2022-12-15T17:27:01;-1.10;99.90
23267;DHT22;11802;53.160;8.214;2022-12-15T17:29:27;-1.00;99.90
23267;DHT22;11802;53.160;8.214;2022-12-15T17:31:54;-1.10;99.90
23267;DHT22;11802;53.160;8.214;2022-12-15T17:34:31;-1.10;99.90
23267;DHT22;11802;53.160;8.214;2022-12-15T17:36:58;-1.10;99.90
23267;DHT22;11802;53.160;8.214;2022-12-15T17:39:25;-1.10;99.90